Time;durP1;ratioP1;P1;durP2;ratioP2;P2;SDS_P1;SDS_P2;PMS_P1;PMS_P2;Temp;Humidity;BMP_temperature;BMP_pressure;BME280_temperature;BME280_humidity;BME280_pressure;Samples;Min_cycle;Max_cycle;Signal;HPM_P1;HPM_P2
2022/11/14 00:00:33;;;;;;;55.05;21.27;;;;;;;;;;5071390;28;20017;-43
2022/11/14 00:02:59;;;;;;;31.02;18.80;;;;;;;;;;5073906;28;20093;-43
2022/11/14 00:05:26;;;;;;;35.35;18.00;;;;;;;;;;5076309;28;20052;-44
2022/11/14 00:07:51;;;;;;;39.63;19.65;;;;;;;;;;5075696;28;20535;-42
2022/11/14 00:10:17;;;;;;;36.38;20.38;;;;;;;;;;5075310;28;20016;-43
2022/11/14 00:12:42;;;;;;;34.03;19.30;;;;;;;;;;5075116;28;20020;-41
2022/11/14 00:15:08;;;;;;;36.83;19.25;;;;;;;;;;5075058;28;20032;-41
2022/11/14 00:17:33;;;;;;;33.15;17.80;;;;;;;;;;5074842;28;20021;-42
2022/11/14 00:19:58;;;;;;;36.30;19.52;;;;;;;;;;5073786;28;20479;-41
2022/11/14 00:22:24;;;;;;;38.15;19.75;;;;;;;;;;5075001;28;20040;-42
2022/11/14 00:24:49;;;;;;;39.50;19.02;;;;;;;;;;5075281;28;20479;-42
2022/11/14 00:27:14;;;;;;;32.83;18.77;;;;;;;;;;5075521;28;20485;-41
2022/11/14 00:29:39;;;;;;;32.55;17.48;;;;;;;;;;5074808;28;20067;-42
2022/11/14 00:32:05;;;;;;;31.33;17.83;;;;;;;;;;5074460;28;20036;-43
2022/11/14 00:34:30;;;;;;;32.25;16.85;;;;;;;;;;5074750;28;20029;-42
2022/11/14 00:36:56;;;;;;;36.45;17.80;;;;;;;;;;5074700;28;20024;-43
2022/11/14 00:39:21;;;;;;;47.97;18.77;;;;;;;;;;5074805;28;20025;-42
2022/11/14 00:41:47;;;;;;;27.48;17.15;;;;;;;;;;5074526;28;20040;-43
2022/11/14 00:44:12;;;;;;;42.97;16.60;;;;;;;;;;5074370;28;20032;-43
2022/11/14 00:46:37;;;;;;;31.58;18.35;;;;;;;;;;5075402;28;20818;-43
2022/11/14 00:49:03;;;;;;;29.50;18.02;;;;;;;;;;5074544;28;20399;-41
2022/11/14 00:51:28;;;;;;;41.55;18.10;;;;;;;;;;5074263;28;20036;-43
2022/11/14 00:53:53;;;;;;;30.40;18.02;;;;;;;;;;5074561;28;20078;-43
2022/11/14 00:56:18;;;;;;;48.00;17.48;;;;;;;;;;5074436;28;20023;-42
2022/11/14 00:58:43;;;;;;;31.58;17.38;;;;;;;;;;5074259;28;20045;-42
2022/11/14 01:01:09;;;;;;;45.30;17.63;;;;;;;;;;5074070;28;20024;-43
2022/11/14 01:03:34;;;;;;;37.08;17.85;;;;;;;;;;5074385;28;20483;-41
2022/11/14 01:06:03;;;;;;;33.33;17.23;;;;;;;;;;5075123;28;20095;-42
2022/11/14 01:08:28;;;;;;;31.08;18.20;;;;;;;;;;5074228;28;20052;-42
2022/11/14 01:10:53;;;;;;;42.28;17.33;;;;;;;;;;5074062;28;20056;-42
2022/11/14 01:13:18;;;;;;;41.13;18.10;;;;;;;;;;5071371;28;20024;-42
2022/11/14 01:15:45;;;;;;;28.17;16.40;;;;;;;;;;5073816;28;20008;-42
2022/11/14 01:18:11;;;;;;;39.50;18.42;;;;;;;;;;5074144;28;20017;-41
2022/11/14 01:20:38;;;;;;;34.08;16.83;;;;;;;;;;5073848;28;20020;-41
2022/11/14 01:23:03;;;;;;;27.90;16.52;;;;;;;;;;5074695;28;20064;-43
2022/11/14 01:25:28;;;;;;;30.23;18.05;;;;;;;;;;5073686;28;20481;-43
2022/11/14 01:27:53;;;;;;;29.15;17.05;;;;;;;;;;5074153;28;20086;-41
2022/11/14 01:30:19;;;;;;;27.53;16.27;;;;;;;;;;5073516;28;20023;-42
2022/11/14 01:32:44;;;;;;;27.17;16.67;;;;;;;;;;5073907;28;20245;-41
2022/11/14 01:35:09;;;;;;;30.25;15.65;;;;;;;;;;5073637;28;20059;-42
2022/11/14 01:37:34;;;;;;;50.78;17.60;;;;;;;;;;5073584;28;20028;-43
2022/11/14 01:40:00;;;;;;;29.25;15.73;;;;;;;;;;5073584;28;20028;-42
2022/11/14 01:42:25;;;;;;;29.92;16.23;;;;;;;;;;5073330;28;20036;-42
2022/11/14 01:44:51;;;;;;;30.17;17.08;;;;;;;;;;5073353;28;20517;-43
2022/11/14 01:47:25;;;;;;;33.88;17.55;;;;;;;;;;5072113;28;20093;-43
2022/11/14 01:49:52;;;;;;;34.08;17.45;;;;;;;;;;5073427;28;20017;-43
2022/11/14 01:52:32;;;;;;;26.60;16.63;;;;;;;;;;5054251;28;20017;-43
2022/11/14 01:54:58;;;;;;;29.10;16.55;;;;;;;;;;5054158;28;20074;-42
2022/11/14 01:57:26;;;;;;;30.10;16.83;;;;;;;;;;5054453;28;20029;-43
2022/11/14 01:59:53;;;;;;;67.05;16.67;;;;;;;;;;5054711;28;20017;-42
2022/11/14 02:02:20;;;;;;;56.10;16.70;;;;;;;;;;5054415;28;20072;-42
2022/11/14 02:04:55;;;;;;;30.38;17.25;;;;;;;;;;5054491;28;20280;-43
2022/11/14 02:07:21;;;;;;;29.70;17.27;;;;;;;;;;5054333;28;20376;-43
2022/11/14 02:09:47;;;;;;;33.50;17.20;;;;;;;;;;5054226;28;20017;-42
2022/11/14 02:12:13;;;;;;;31.25;17.45;;;;;;;;;;5053145;28;20043;-40
2022/11/14 02:14:40;;;;;;;74.03;18.30;;;;;;;;;;5054392;28;20032;-43
2022/11/14 02:17:05;;;;;;;37.50;17.08;;;;;;;;;;5054297;28;20092;-43
2022/11/14 02:19:41;;;;;;;30.98;16.98;;;;;;;;;;5054273;28;20025;-42
2022/11/14 02:22:06;;;;;;;31.55;17.83;;;;;;;;;;5053535;28;20072;-42
2022/11/14 02:24:31;;;;;;;55.53;17.58;;;;;;;;;;5053368;28;20075;-43
2022/11/14 02:26:56;;;;;;;38.10;18.33;;;;;;;;;;5053809;28;20013;-41
2022/11/14 02:29:22;;;;;;;53.85;18.13;;;;;;;;;;5054127;28;20021;-43
2022/11/14 02:31:47;;;;;;;30.08;17.65;;;;;;;;;;5054545;28;20024;-42
2022/11/14 02:34:15;;;;;;;38.13;18.23;;;;;;;;;;5053806;28;20027;-42
2022/11/14 02:36:40;;;;;;;62.28;17.33;;;;;;;;;;5053817;28;20021;-40
2022/11/14 02:39:06;;;;;;;30.98;18.27;;;;;;;;;;5053551;28;20028;-43
2022/11/14 02:41:31;;;;;;;84.32;17.85;;;;;;;;;;5052545;28;20017;-44
2022/11/14 02:43:56;;;;;;;46.58;17.73;;;;;;;;;;5053253;28;20048;-40
2022/11/14 02:46:21;;;;;;;39.50;17.03;;;;;;;;;;5053456;28;20488;-41
2022/11/14 02:48:46;;;;;;;44.75;18.75;;;;;;;;;;5053543;28;20717;-43
2022/11/14 02:51:12;;;;;;;34.38;17.88;;;;;;;;;;5053504;28;20021;-43
2022/11/14 02:53:37;;;;;;;33.90;18.10;;;;;;;;;;5053400;28;20021;-41
2022/11/14 02:56:02;;;;;;;36.95;19.02;;;;;;;;;;5053786;28;20047;-42
2022/11/14 02:58:27;;;;;;;32.50;18.08;;;;;;;;;;5053351;28;20025;-41
2022/11/14 03:00:53;;;;;;;36.38;18.88;;;;;;;;;;5053505;28;20021;-42
2022/11/14 03:03:18;;;;;;;36.65;18.63;;;;;;;;;;5053422;28;20440;-39
2022/11/14 03:05:43;;;;;;;46.30;18.08;;;;;;;;;;5052880;28;20388;-42
2022/11/14 03:08:08;;;;;;;50.17;18.38;;;;;;;;;;5053690;28;20024;-42
2022/11/14 03:10:34;;;;;;;41.27;17.57;;;;;;;;;;5053509;28;20091;-40
2022/11/14 03:12:59;;;;;;;59.65;17.75;;;;;;;;;;5053086;28;20278;-42
2022/11/14 03:15:24;;;;;;;41.08;16.80;;;;;;;;;;5053340;28;20195;-42
2022/11/14 03:17:49;;;;;;;34.15;17.33;;;;;;;;;;5053255;28;20028;-40
2022/11/14 03:20:15;;;;;;;39.17;16.33;;;;;;;;;;5053233;28;20464;-41
2022/11/14 03:22:40;;;;;;;48.88;17.05;;;;;;;;;;5052893;28;20036;-42
2022/11/14 03:25:06;;;;;;;32.95;15.60;;;;;;;;;;5053282;28;20021;-43
2022/11/14 03:27:31;;;;;;;41.88;16.70;;;;;;;;;;5053368;28;20024;-42
2022/11/14 03:29:56;;;;;;;39.60;15.13;;;;;;;;;;5052574;28;20155;-40
2022/11/14 03:32:21;;;;;;;30.98;15.98;;;;;;;;;;5053404;28;20021;-41
2022/11/14 03:34:46;;;;;;;37.50;16.45;;;;;;;;;;5052827;28;20476;-40
2022/11/14 03:37:12;;;;;;;31.13;14.77;;;;;;;;;;5055827;28;20021;-40
2022/11/14 03:39:37;;;;;;;42.70;15.93;;;;;;;;;;5057010;28;20127;-41
2022/11/14 03:42:02;;;;;;;30.25;14.20;;;;;;;;;;5057344;28;20380;-41
2022/11/14 03:44:28;;;;;;;35.13;15.82;;;;;;;;;;5057103;28;20024;-41
2022/11/14 03:46:53;;;;;;;32.78;16.48;;;;;;;;;;5055518;28;20041;-42
2022/11/14 03:49:18;;;;;;;29.88;15.95;;;;;;;;;;5056535;28;20027;-41
2022/11/14 03:51:43;;;;;;;30.60;16.60;;;;;;;;;;5056928;28;20028;-42
2022/11/14 03:54:09;;;;;;;31.58;15.38;;;;;;;;;;5056762;28;20057;-42
2022/11/14 03:56:52;;;;;;;31.73;17.05;;;;;;;;;;5056899;28;20045;-42
2022/11/14 03:59:18;;;;;;;28.02;16.27;;;;;;;;;;5056937;28;20032;-39
2022/11/14 04:01:43;;;;;;;42.30;17.05;;;;;;;;;;5056719;28;20029;-43
2022/11/14 04:04:10;;;;;;;30.63;16.27;;;;;;;;;;5056635;28;20032;-40
2022/11/14 04:06:35;;;;;;;63.13;17.52;;;;;;;;;;5056432;28;20032;-43
2022/11/14 04:09:01;;;;;;;37.73;16.47;;;;;;;;;;5056642;28;20017;-43
2022/11/14 04:11:26;;;;;;;31.42;16.42;;;;;;;;;;5056445;28;20253;-41
2022/11/14 04:13:51;;;;;;;30.08;17.10;;;;;;;;;;5056565;28;20025;-42
2022/11/14 04:16:17;;;;;;;55.22;16.05;;;;;;;;;;5056528;28;20017;-41
2022/11/14 04:18:42;;;;;;;31.40;15.25;;;;;;;;;;5055180;28;20025;-42
2022/11/14 04:21:07;;;;;;;79.35;17.15;;;;;;;;;;5056127;28;20075;-42
2022/11/14 04:23:32;;;;;;;57.38;16.00;;;;;;;;;;5056537;28;20483;-42
2022/11/14 04:25:58;;;;;;;63.00;15.93;;;;;;;;;;5056428;28;20062;-42
2022/11/14 04:28:23;;;;;;;30.23;15.27;;;;;;;;;;5056293;28;20063;-39
2022/11/14 04:30:48;;;;;;;29.98;15.52;;;;;;;;;;5056332;28;20098;-41
2022/11/14 04:33:13;;;;;;;36.95;16.80;;;;;;;;;;5056174;28;20009;-41
2022/11/14 04:35:39;;;;;;;34.33;15.82;;;;;;;;;;5055471;28;20158;-42
2022/11/14 04:38:04;;;;;;;33.22;16.73;;;;;;;;;;5056159;28;20103;-42
2022/11/14 04:40:29;;;;;;;58.90;15.98;;;;;;;;;;5056484;28;20013;-43
2022/11/14 04:42:54;;;;;;;36.05;16.02;;;;;;;;;;5055978;28;20033;-40
2022/11/14 04:45:20;;;;;;;37.78;16.88;;;;;;;;;;5055937;28;20044;-42
2022/11/14 04:47:45;;;;;;;31.80;16.25;;;;;;;;;;5055710;28;20028;-43
2022/11/14 04:50:11;;;;;;;29.23;17.05;;;;;;;;;;5055239;28;20097;-43
2022/11/14 04:52:36;;;;;;;36.92;17.20;;;;;;;;;;5055209;28;20017;-42
2022/11/14 04:55:01;;;;;;;32.35;16.40;;;;;;;;;;5056224;28;20028;-42
2022/11/14 04:57:26;;;;;;;25.27;14.90;;;;;;;;;;5056129;28;20017;-40
2022/11/14 04:59:52;;;;;;;27.30;15.27;;;;;;;;;;5055697;28;20495;-42
2022/11/14 05:02:17;;;;;;;31.50;16.20;;;;;;;;;;5055388;28;20033;-40
2022/11/14 05:04:44;;;;;;;32.28;15.77;;;;;;;;;;5055788;28;20013;-44
2022/11/14 05:07:10;;;;;;;48.58;16.40;;;;;;;;;;5051352;28;20384;-41
2022/11/14 05:09:35;;;;;;;26.42;14.52;;;;;;;;;;5055603;28;20017;-40
2022/11/14 05:12:01;;;;;;;35.90;15.85;;;;;;;;;;5055405;28;20025;-42
2022/11/14 05:14:26;;;;;;;34.40;15.13;;;;;;;;;;5055407;28;20029;-40
2022/11/14 05:16:51;;;;;;;28.00;16.65;;;;;;;;;;5054818;28;20435;-43
2022/11/14 05:19:16;;;;;;;27.80;15.57;;;;;;;;;;5055127;28;20044;-43
2022/11/14 05:21:42;;;;;;;38.15;16.38;;;;;;;;;;5055069;28;20106;-43
2022/11/14 05:24:07;;;;;;;29.17;16.70;;;;;;;;;;5055436;28;20028;-42
2022/11/14 05:26:32;;;;;;;32.00;16.92;;;;;;;;;;5055170;28;20476;-41
2022/11/14 05:28:57;;;;;;;30.70;16.40;;;;;;;;;;5055137;28;20048;-44
2022/11/14 05:31:23;;;;;;;33.33;16.42;;;;;;;;;;5055063;28;20032;-39
2022/11/14 05:33:49;;;;;;;39.00;16.50;;;;;;;;;;5054949;28;20064;-40
2022/11/14 05:36:15;;;;;;;37.72;17.85;;;;;;;;;;5054817;28;20070;-41
2022/11/14 05:38:40;;;;;;;30.38;16.00;;;;;;;;;;5054610;28;20427;-41
2022/11/14 05:41:13;;;;;;;33.88;16.38;;;;;;;;;;5053959;28;20021;-41
2022/11/14 05:43:38;;;;;;;25.40;15.13;;;;;;;;;;5054716;28;20104;-40
2022/11/14 05:46:05;;;;;;;38.60;17.23;;;;;;;;;;5054871;28;20053;-42
2022/11/14 05:48:31;;;;;;;33.47;17.58;;;;;;;;;;5054490;28;20372;-42
2022/11/14 05:50:57;;;;;;;36.95;17.88;;;;;;;;;;5054651;28;20100;-42
2022/11/14 05:53:22;;;;;;;51.55;17.95;;;;;;;;;;5054822;28;20381;-40
2022/11/14 05:55:47;;;;;;;38.35;17.42;;;;;;;;;;5054642;28;20017;-42
2022/11/14 05:58:12;;;;;;;31.48;16.23;;;;;;;;;;5054444;28;20025;-40
2022/11/14 06:00:38;;;;;;;43.05;17.23;;;;;;;;;;5053878;28;20041;-43
2022/11/14 06:03:03;;;;;;;45.25;17.52;;;;;;;;;;5054322;28;20051;-42
2022/11/14 06:05:28;;;;;;;31.30;15.93;;;;;;;;;;5054338;28;20024;-41
2022/11/14 06:07:55;;;;;;;31.25;17.83;;;;;;;;;;5054293;28;20021;-41
2022/11/14 06:10:20;;;;;;;33.03;17.92;;;;;;;;;;5054326;28;20056;-39
2022/11/14 06:12:46;;;;;;;31.60;17.48;;;;;;;;;;5054386;28;20051;-42
2022/11/14 06:15:12;;;;;;;38.47;18.88;;;;;;;;;;5054176;28;20025;-43
2022/11/14 06:17:37;;;;;;;33.88;17.27;;;;;;;;;;5053671;28;20053;-41
2022/11/14 06:20:02;;;;;;;35.60;18.75;;;;;;;;;;5053859;28;20095;-41
2022/11/14 06:22:27;;;;;;;46.83;18.83;;;;;;;;;;5054157;28;20037;-43
2022/11/14 06:24:53;;;;;;;35.03;18.58;;;;;;;;;;5052848;28;20021;-41
2022/11/14 06:27:18;;;;;;;32.28;17.50;;;;;;;;;;5054399;28;20025;-40
2022/11/14 06:29:43;;;;;;;38.63;19.67;;;;;;;;;;5054044;28;20542;-41
2022/11/14 06:32:08;;;;;;;45.35;20.08;;;;;;;;;;5054118;28;20031;-42
2022/11/14 06:34:33;;;;;;;28.17;15.98;;;;;;;;;;5057844;28;20051;-41
2022/11/14 06:36:59;;;;;;;44.33;18.10;;;;;;;;;;5071112;28;20457;-43
2022/11/14 06:39:24;;;;;;;40.63;17.33;;;;;;;;;;5072461;28;20218;-41
2022/11/14 06:41:49;;;;;;;61.67;19.80;;;;;;;;;;5072485;28;20032;-41
2022/11/14 06:44:14;;;;;;;30.02;18.02;;;;;;;;;;5073145;28;20035;-43
2022/11/14 06:46:40;;;;;;;33.40;18.58;;;;;;;;;;5067870;28;20041;-43
2022/11/14 06:49:05;;;;;;;35.58;18.08;;;;;;;;;;5058710;28;20032;-44
2022/11/14 06:51:30;;;;;;;38.92;18.17;;;;;;;;;;5053930;28;20025;-43
2022/11/14 06:53:56;;;;;;;34.35;17.95;;;;;;;;;;5054983;28;20043;-44
2022/11/14 06:56:21;;;;;;;32.38;17.67;;;;;;;;;;5060343;28;20020;-43
2022/11/14 06:58:48;;;;;;;32.28;18.75;;;;;;;;;;5053045;28;20025;-44
2022/11/14 07:01:14;;;;;;;32.83;18.35;;;;;;;;;;5053823;28;20029;-43
2022/11/14 07:03:40;;;;;;;33.33;18.92;;;;;;;;;;5052966;28;20488;-44
2022/11/14 07:06:05;;;;;;;33.03;18.42;;;;;;;;;;5069245;28;20012;-44
2022/11/14 07:08:31;;;;;;;36.05;19.63;;;;;;;;;;5061389;28;20068;-43
2022/11/14 07:11:05;;;;;;;36.95;20.00;;;;;;;;;;5051024;28;20020;-43
2022/11/14 07:13:31;;;;;;;42.95;20.63;;;;;;;;;;5060455;28;20020;-43
2022/11/14 07:15:57;;;;;;;54.40;18.90;;;;;;;;;;5049485;28;20021;-46
2022/11/14 07:18:22;;;;;;;41.58;20.20;;;;;;;;;;5057587;28;20491;-44
2022/11/14 07:20:47;;;;;;;70.65;29.25;;;;;;;;;;5058925;28;20008;-45
2022/11/14 07:23:13;;;;;;;74.57;28.40;;;;;;;;;;5056285;28;20105;-44
2022/11/14 07:25:38;;;;;;;42.60;21.95;;;;;;;;;;5057512;28;20016;-45
2022/11/14 07:28:04;;;;;;;81.35;23.38;;;;;;;;;;5051904;28;20071;-44
2022/11/14 07:30:29;;;;;;;41.65;22.17;;;;;;;;;;5059049;28;20451;-45
2022/11/14 07:32:55;;;;;;;47.42;22.38;;;;;;;;;;5055337;28;20031;-44
2022/11/14 07:35:21;;;;;;;49.25;22.48;;;;;;;;;;5052376;28;20035;-44
2022/11/14 07:37:46;;;;;;;67.03;21.00;;;;;;;;;;5054245;28;20021;-43
2022/11/14 07:40:11;;;;;;;76.03;21.67;;;;;;;;;;5052505;28;20017;-43
2022/11/14 07:42:37;;;;;;;35.72;19.98;;;;;;;;;;5056736;28;20028;-43
2022/11/14 07:45:02;;;;;;;47.70;21.27;;;;;;;;;;5052639;28;20037;-39
2022/11/14 07:47:27;;;;;;;71.47;22.65;;;;;;;;;;5061976;28;20025;-42
2022/11/14 07:49:53;;;;;;;61.65;22.05;;;;;;;;;;5062425;28;20044;-40
2022/11/14 07:52:18;;;;;;;43.03;20.77;;;;;;;;;;5058823;28;20021;-44
2022/11/14 07:54:43;;;;;;;40.78;20.17;;;;;;;;;;5058367;28;20063;-43
2022/11/14 07:57:09;;;;;;;48.55;18.52;;;;;;;;;;5056215;28;20085;-43
2022/11/14 07:59:34;;;;;;;40.92;22.05;;;;;;;;;;5060399;28;20065;-40
2022/11/14 08:01:59;;;;;;;41.13;19.30;;;;;;;;;;5061240;28;20392;-40
2022/11/14 08:04:25;;;;;;;72.78;22.15;;;;;;;;;;5050318;28;20448;-45
2022/11/14 08:06:50;;;;;;;36.40;20.58;;;;;;;;;;5059755;28;20433;-47
2022/11/14 08:09:16;;;;;;;59.35;18.75;;;;;;;;;;5056219;28;20021;-43
2022/11/14 08:11:47;;;;;;;34.95;18.63;;;;;;;;;;5050756;28;20602;-45
2022/11/14 08:14:12;;;;;;;34.92;18.30;;;;;;;;;;5058713;28;20028;-44
2022/11/14 08:16:37;;;;;;;33.67;18.58;;;;;;;;;;5055429;28;20740;-45
2022/11/14 08:19:03;;;;;;;55.58;24.08;;;;;;;;;;5053391;28;20070;-45
2022/11/14 08:21:28;;;;;;;34.45;18.08;;;;;;;;;;5054020;28;20025;-44
2022/11/14 08:23:53;;;;;;;33.50;18.35;;;;;;;;;;5061617;28;20032;-45
2022/11/14 08:26:19;;;;;;;33.22;17.48;;;;;;;;;;5063535;28;20021;-44
2022/11/14 08:28:44;;;;;;;38.05;17.65;;;;;;;;;;5068338;28;20012;-46
2022/11/14 08:31:09;;;;;;;35.75;18.80;;;;;;;;;;5057454;28;20044;-44
2022/11/14 08:33:35;;;;;;;32.95;17.70;;;;;;;;;;5063779;28;20017;-43
2022/11/14 08:36:01;;;;;;;40.72;19.95;;;;;;;;;;5060546;28;20099;-45
2022/11/14 08:38:26;;;;;;;57.45;20.08;;;;;;;;;;5057167;28;20064;-44
2022/11/14 08:40:51;;;;;;;49.58;19.88;;;;;;;;;;5066255;28;20017;-43
2022/11/14 08:43:17;;;;;;;33.90;18.33;;;;;;;;;;5067317;28;20033;-43
2022/11/14 08:45:42;;;;;;;36.30;18.98;;;;;;;;;;5053015;28;20048;-44
2022/11/14 08:48:07;;;;;;;35.17;18.00;;;;;;;;;;5064210;28;20070;-43
2022/11/14 08:50:32;;;;;;;29.92;16.52;;;;;;;;;;5059741;28;20021;-44
2022/11/14 08:52:58;;;;;;;34.60;19.35;;;;;;;;;;5068268;28;20091;-45
2022/11/14 08:55:23;;;;;;;43.17;16.35;;;;;;;;;;5060630;28;20032;-42
2022/11/14 08:57:51;;;;;;;37.92;16.70;;;;;;;;;;5064859;28;20021;-45
2022/11/14 09:00:17;;;;;;;37.22;17.75;;;;;;;;;;5056645;28;20096;-44
2022/11/14 09:02:42;;;;;;;34.97;16.35;;;;;;;;;;5059289;28;20119;-41
2022/11/14 09:05:08;;;;;;;55.15;21.98;;;;;;;;;;5057928;28;20464;-43
2022/11/14 09:07:33;;;;;;;52.80;17.95;;;;;;;;;;5058214;28;20093;-44
2022/11/14 09:09:58;;;;;;;53.05;20.23;;;;;;;;;;5058432;28;20021;-42
2022/11/14 09:12:23;;;;;;;32.70;16.92;;;;;;;;;;5057388;28;20096;-43
2022/11/14 09:14:49;;;;;;;46.63;19.77;;;;;;;;;;5058793;28;20017;-45
2022/11/14 09:17:14;;;;;;;42.60;17.73;;;;;;;;;;5054438;28;20013;-43
2022/11/14 09:19:39;;;;;;;32.03;18.20;;;;;;;;;;5057882;28;20021;-43
2022/11/14 09:22:05;;;;;;;33.28;17.90;;;;;;;;;;5065039;28;20033;-46
2022/11/14 09:24:30;;;;;;;38.80;18.98;;;;;;;;;;5063655;28;20065;-46
2022/11/14 09:26:55;;;;;;;54.00;24.63;;;;;;;;;;5057136;28;20023;-44
2022/11/14 09:29:21;;;;;;;36.97;18.55;;;;;;;;;;5053629;28;20027;-42
2022/11/14 09:31:46;;;;;;;29.00;17.05;;;;;;;;;;5058388;28;20028;-41
2022/11/14 09:34:11;;;;;;;53.90;18.58;;;;;;;;;;5062442;28;20024;-43
2022/11/14 09:36:37;;;;;;;36.08;16.13;;;;;;;;;;5063401;28;20097;-44
2022/11/14 09:39:02;;;;;;;27.05;15.85;;;;;;;;;;5061316;28;20154;-42
2022/11/14 09:41:43;;;;;;;32.75;17.55;;;;;;;;;;5056143;28;20025;-44
2022/11/14 09:44:22;;;;;;;32.40;18.35;;;;;;;;;;5061718;28;20036;-43
2022/11/14 09:46:51;;;;;;;32.70;18.02;;;;;;;;;;5059504;28;20053;-47
2022/11/14 09:49:16;;;;;;;;;;;;;;;;;;5063999;28;20104;-44
2022/11/14 09:51:49;;;;;;;34.37;17.67;;;;;;;;;;5058366;28;20036;-47
2022/11/14 09:54:25;;;;;;;29.65;16.83;;;;;;;;;;5055003;28;20257;-44
2022/11/14 09:56:50;;;;;;;39.75;18.60;;;;;;;;;;5056963;28;20033;-44
2022/11/14 09:59:16;;;;;;;34.17;18.00;;;;;;;;;;5060863;28;20028;-40
2022/11/14 10:01:58;;;;;;;33.10;18.65;;;;;;;;;;5057731;28;20025;-45
2022/11/14 10:04:42;;;;;;;33.58;18.67;;;;;;;;;;5056023;28;20028;-42
2022/11/14 10:07:07;;;;;;;31.83;17.02;;;;;;;;;;5059550;28;20032;-44
2022/11/14 10:09:33;;;;;;;31.88;16.80;;;;;;;;;;5062432;28;20082;-42
2022/11/14 10:12:24;;;;;;;33.58;18.48;;;;;;;;;;5053392;28;20025;-44
2022/11/14 10:14:52;;;;;;;33.83;19.08;;;;;;;;;;5051884;28;20087;-44
2022/11/14 10:17:20;;;;;;;29.33;17.55;;;;;;;;;;5053257;28;20021;-42
2022/11/14 10:19:46;;;;;;;32.47;19.45;;;;;;;;;;5056060;28;20032;-43
2022/11/14 10:22:18;;;;;;;36.13;18.83;;;;;;;;;;5058504;28;20472;-43
2022/11/14 10:24:49;;;;;;;34.88;18.85;;;;;;;;;;5057784;28;20035;-46
2022/11/14 10:27:15;;;;;;;33.40;18.75;;;;;;;;;;5055933;28;20082;-41
2022/11/14 10:30:01;;;;;;;32.88;18.70;;;;;;;;;;5057253;28;20083;-41
2022/11/14 10:32:35;;;;;;;31.50;16.55;;;;;;;;;;5055263;28;20147;-42
2022/11/14 10:35:00;;;;;;;35.70;19.35;;;;;;;;;;5063461;28;20365;-43
2022/11/14 10:37:30;;;;;;;31.02;16.75;;;;;;;;;;5070917;28;20027;-42
2022/11/14 10:40:07;;;;;;;29.73;15.95;;;;;;;;;;5062469;28;20040;-45
2022/11/14 10:42:36;;;;;;;39.88;20.13;;;;;;;;;;5055623;28;20037;-44
2022/11/14 10:45:01;;;;;;;;;;;;;;;;;;5064274;28;20064;-43
2022/11/14 10:47:31;;;;;;;27.40;15.88;;;;;;;;;;5060469;28;19943;-42
2022/11/14 10:49:59;;;;;;;32.90;18.40;;;;;;;;;;5060227;28;20092;-41
2022/11/14 10:52:32;;;;;;;34.00;18.75;;;;;;;;;;5055225;28;20494;-42
2022/11/14 10:55:00;;;;;;;36.88;19.20;;;;;;;;;;5051641;28;20025;-47
2022/11/14 10:57:27;;;;;;;38.00;20.52;;;;;;;;;;5057406;28;20048;-44
2022/11/14 10:59:54;;;;;;;37.58;20.27;;;;;;;;;;5061532;28;20035;-42
2022/11/14 11:02:19;;;;;;;35.88;20.17;;;;;;;;;;5057807;28;20029;-38
2022/11/14 11:04:45;;;;;;;45.40;22.33;;;;;;;;;;5060377;28;20027;-43
2022/11/14 11:11:28;;;;;;;41.97;21.33;;;;;;;;;;5060125;28;20025;-39
2022/11/14 11:12:44;;;;;;;46.40;23.10;;;;;;;;;;5052711;28;20420;-39
2022/11/14 11:15:20;;;;;;;38.53;21.45;;;;;;;;;;5056921;28;20020;-39
2022/11/14 11:17:55;;;;;;;38.90;21.88;;;;;;;;;;5062628;28;20119;-38
2022/11/14 11:20:23;;;;;;;44.35;21.55;;;;;;;;;;5068766;28;20039;-43
2022/11/14 11:22:49;;;;;;;41.38;22.58;;;;;;;;;;5054839;28;20373;-41
2022/11/14 11:25:25;;;;;;;41.60;21.67;;;;;;;;;;5063582;28;20236;-44
2022/11/14 11:28:23;;;;;;;44.97;22.77;;;;;;;;;;5062332;28;20384;-40
2022/11/14 11:30:59;;;;;;;45.90;23.33;;;;;;;;;;5047023;28;20028;-40
2022/11/14 11:33:29;;;;;;;52.10;25.75;;;;;;;;;;5059030;28;20059;-41
2022/11/14 11:35:59;;;;;;;46.33;24.35;;;;;;;;;;5067443;28;20060;-42
2022/11/14 11:38:27;;;;;;;47.25;23.48;;;;;;;;;;5060017;28;20099;-41
2022/11/14 11:41:12;;;;;;;51.47;25.60;;;;;;;;;;5070558;28;20028;-43
2022/11/14 11:43:41;;;;;;;43.58;21.75;;;;;;;;;;5050430;28;20044;-44
2022/11/14 11:46:35;;;;;;;50.55;24.05;;;;;;;;;;5053315;28;20041;-44
2022/11/14 11:49:12;;;;;;;46.55;24.23;;;;;;;;;;5052858;28;20435;-41
2022/11/14 11:51:39;;;;;;;49.20;23.70;;;;;;;;;;5053538;28;20014;-42
2022/11/14 11:54:13;;;;;;;48.55;23.40;;;;;;;;;;5047676;28;20032;-46
2022/11/14 11:56:40;;;;;;;49.40;25.98;;;;;;;;;;5055108;28;20163;-45
2022/11/14 11:59:32;;;;;;;49.20;24.85;;;;;;;;;;5067412;28;20074;-44
2022/11/14 12:01:57;;;;;;;51.92;25.65;;;;;;;;;;5060241;28;20369;-41
2022/11/14 12:04:23;;;;;;;51.72;25.65;;;;;;;;;;5059035;28;20021;-45
2022/11/14 12:07:02;;;;;;;51.83;24.77;;;;;;;;;;5063634;28;20060;-41
2022/11/14 12:09:37;;;;;;;45.72;23.33;;;;;;;;;;5062924;28;20104;-43
2022/11/14 12:12:06;;;;;;;42.95;22.30;;;;;;;;;;5060422;28;20028;-38
2022/11/14 12:14:38;;;;;;;47.47;24.60;;;;;;;;;;5059305;28;20774;-42
2022/11/14 12:17:12;;;;;;;45.70;23.85;;;;;;;;;;5060542;28;20086;-45
2022/11/14 12:19:43;;;;;;;45.20;23.88;;;;;;;;;;5057232;28;20040;-43
2022/11/14 12:22:11;;;;;;;56.92;26.08;;;;;;;;;;5056560;28;20037;-42
2022/11/14 12:24:45;;;;;;;49.00;22.67;;;;;;;;;;5054814;28;20121;-43
2022/11/14 12:27:29;;;;;;;47.00;23.48;;;;;;;;;;5058098;28;20104;-42
2022/11/14 12:30:07;;;;;;;46.83;24.33;;;;;;;;;;5057074;28;20029;-42
2022/11/14 12:32:38;;;;;;;48.30;25.10;;;;;;;;;;5058750;28;20107;-44
2022/11/14 12:35:05;;;;;;;48.78;24.20;;;;;;;;;;5060843;28;20025;-44
2022/11/14 12:37:35;;;;;;;44.92;22.65;;;;;;;;;;5062222;28;20092;-43
2022/11/14 12:40:03;;;;;;;45.92;23.55;;;;;;;;;;5060203;28;20017;-41
2022/11/14 12:42:28;;;;;;;41.70;22.27;;;;;;;;;;5065183;28;20487;-43
2022/11/14 12:44:53;;;;;;;44.70;23.48;;;;;;;;;;5060258;28;20043;-44
2022/11/14 12:47:20;;;;;;;76.97;38.20;;;;;;;;;;5058455;28;20024;-44
2022/11/14 12:49:45;;;;;;;71.00;36.28;;;;;;;;;;5056527;28;20021;-44
2022/11/14 12:52:34;;;;;;;52.38;24.45;;;;;;;;;;5059116;28;20116;-39
2022/11/14 12:54:59;;;;;;;45.63;23.05;;;;;;;;;;5061333;28;20029;-42
2022/11/14 12:57:47;;;;;;;45.25;22.77;;;;;;;;;;5073996;28;20699;-46
2022/11/14 13:00:13;;;;;;;42.95;22.13;;;;;;;;;;5054913;28;20020;-42
2022/11/14 13:02:48;;;;;;;47.78;22.83;;;;;;;;;;5066630;28;20437;-43
2022/11/14 13:05:13;;;;;;;43.25;21.98;;;;;;;;;;5054052;28;20035;-44
2022/11/14 13:07:41;;;;;;;46.95;22.63;;;;;;;;;;5055196;28;20099;-38
2022/11/14 13:10:26;;;;;;;46.10;23.30;;;;;;;;;;5055307;28;20025;-42
2022/11/14 13:21:47;;;;;;;52.47;25.05;;;;;;;;;;5069479;28;20442;-42
2022/11/14 13:24:16;;;;;;;45.22;23.27;;;;;;;;;;5059777;28;20041;-44
2022/11/14 13:26:45;;;;;;;47.28;23.75;;;;;;;;;;5056927;28;20021;-43
2022/11/14 13:29:29;;;;;;;46.03;23.60;;;;;;;;;;5061776;28;20025;-40
2022/11/14 13:31:54;;;;;;;46.30;23.88;;;;;;;;;;5054314;28;20025;-45
2022/11/14 13:34:36;;;;;;;48.75;24.70;;;;;;;;;;5058472;28;20033;-43
2022/11/14 13:37:07;;;;;;;45.80;23.00;;;;;;;;;;5066170;28;20054;-43
2022/11/14 13:39:51;;;;;;;59.58;28.17;;;;;;;;;;5064416;28;20039;-44
2022/11/14 13:42:19;;;;;;;48.05;24.35;;;;;;;;;;5070039;28;20131;-46
2022/11/14 13:44:47;;;;;;;50.08;24.95;;;;;;;;;;5053677;28;20021;-44
2022/11/14 13:47:30;;;;;;;52.80;26.25;;;;;;;;;;5053540;28;20064;-42
2022/11/14 13:50:10;;;;;;;50.72;23.58;;;;;;;;;;5055182;28;20029;-42
2022/11/14 13:52:43;;;;;;;51.88;24.75;;;;;;;;;;5064217;28;20040;-43
2022/11/14 13:55:28;;;;;;;53.08;23.25;;;;;;;;;;5058729;28;20119;-43
2022/11/14 13:58:12;;;;;;;54.60;23.83;;;;;;;;;;5051706;28;20427;-46
2022/11/14 14:00:46;;;;;;;51.95;25.00;;;;;;;;;;5071584;28;20025;-38
2022/11/14 14:03:17;;;;;;;59.05;26.35;;;;;;;;;;5070360;28;20081;-43
2022/11/14 14:06:07;;;;;;;56.25;26.65;;;;;;;;;;5065437;28;20506;-42
2022/11/14 14:08:38;;;;;;;56.83;26.55;;;;;;;;;;5053473;28;20422;-44
2022/11/14 14:11:12;;;;;;;49.22;22.90;;;;;;;;;;5083947;28;20115;-41
2022/11/14 14:13:50;;;;;;;64.30;26.15;;;;;;;;;;5073344;28;20103;-44
2022/11/14 14:16:30;;;;;;;51.40;24.98;;;;;;;;;;5065623;28;20511;-41
2022/11/14 14:18:56;;;;;;;;;;;;;;;;;;5058538;28;20028;-41
2022/11/14 14:21:27;;;;;;;53.67;25.25;;;;;;;;;;5059863;28;19923;-43
2022/11/14 14:23:52;;;;;;;62.80;27.10;;;;;;;;;;5057053;28;20036;-43
2022/11/14 14:26:17;;;;;;;73.28;31.52;;;;;;;;;;5061285;28;20021;-38
2022/11/14 14:29:02;;;;;;;66.50;29.45;;;;;;;;;;5055635;28;20464;-42
2022/11/14 14:31:34;;;;;;;69.32;34.35;;;;;;;;;;5056544;28;20044;-44
2022/11/14 14:34:00;;;;;;;65.20;29.83;;;;;;;;;;5057505;28;20037;-43